createdAt,value
2023-01-06T00:01:39.371Z,2.70
2023-01-06T00:06:42.607Z,3.20
2023-01-06T00:11:45.996Z,2.70
2023-01-06T00:16:50.620Z,3.00
2023-01-06T00:21:53.887Z,2.95
2023-01-06T00:26:57.217Z,2.83
2023-01-06T00:32:02.738Z,2.90
2023-01-06T00:37:06.031Z,3.10
2023-01-06T00:42:09.273Z,3.10
2023-01-06T00:47:14.720Z,3.30
2023-01-06T00:52:18.095Z,2.78
2023-01-06T00:57:21.351Z,3.10
2023-01-06T01:02:26.137Z,3.30
2023-01-06T01:07:29.515Z,2.90
2023-01-06T01:12:34.534Z,3.20
2023-01-06T01:17:41.108Z,3.50
2023-01-06T01:22:44.466Z,3.50
2023-01-06T01:27:47.760Z,3.67
2023-01-06T01:32:52.370Z,3.83
2023-01-06T01:37:55.651Z,3.90
2023-01-06T01:42:59.018Z,3.40
2023-01-06T01:48:08.303Z,3.60
2023-01-06T01:53:15.943Z,3.50
2023-01-06T01:58:24.251Z,3.47
2023-01-06T02:03:29.351Z,3.53
2023-01-06T02:08:37.607Z,4.03
2023-01-06T02:13:44.424Z,4.28
2023-01-06T02:19:00.778Z,4.60
2023-01-06T02:24:54.954Z,6.50
2023-01-06T02:30:24.303Z,4.93
2023-01-06T02:35:56.009Z,5.07
2023-01-06T02:41:10.970Z,4.20
2023-01-06T02:46:26.164Z,4.10
2023-01-06T02:51:37.659Z,4.90
2023-01-06T02:56:48.152Z,5.10
2023-01-06T03:01:55.625Z,5.65
2023-01-06T03:07:03.496Z,6.95
2023-01-06T03:12:15.625Z,6.47
2023-01-06T03:17:19.599Z,7.13
2023-01-06T03:22:25.403Z,7.90
2023-01-06T03:27:29.222Z,8.77
2023-01-06T03:32:41.510Z,8.63
2023-01-06T03:37:54.766Z,8.70
2023-01-06T03:43:16.552Z,9.20
2023-01-06T03:48:32.559Z,8.10
2023-01-06T03:53:42.498Z,7.63
2023-01-06T03:58:49.713Z,7.50
2023-01-06T04:03:53.945Z,8.43
2023-01-06T04:09:00.113Z,9.55
2023-01-06T04:14:04.065Z,9.77
2023-01-06T04:19:07.427Z,8.10
2023-01-06T04:24:12.827Z,9.50
2023-01-06T04:29:16.404Z,10.18
2023-01-06T04:34:19.969Z,9.60
2023-01-06T04:39:25.749Z,9.73
2023-01-06T04:44:29.000Z,9.88
2023-01-06T04:49:32.387Z,9.13
2023-01-06T04:54:37.110Z,9.50
2023-01-06T04:59:40.331Z,8.52
2023-01-06T05:04:48.089Z,9.73
2023-01-06T05:09:52.852Z,10.05
2023-01-06T05:14:56.132Z,9.25
2023-01-06T05:19:59.361Z,8.85
2023-01-06T05:25:04.210Z,9.40
2023-01-06T05:30:08.669Z,10.57
2023-01-06T05:35:11.958Z,10.50
2023-01-06T05:40:16.616Z,11.15
2023-01-06T05:45:19.829Z,10.68
2023-01-06T05:50:23.090Z,10.73
2023-01-06T05:55:28.486Z,10.00
2023-01-06T06:00:31.740Z,10.38
2023-01-06T06:05:35.004Z,10.52
2023-01-06T06:10:39.629Z,10.57
2023-01-06T06:15:44.717Z,11.25
2023-01-06T06:20:48.032Z,11.30
2023-01-06T06:25:52.801Z,11.75
2023-01-06T06:30:56.109Z,11.60
2023-01-06T06:35:59.703Z,11.93
2023-01-06T06:41:04.347Z,12.02
2023-01-06T06:46:08.312Z,12.20
2023-01-06T06:51:13.633Z,12.60
2023-01-06T06:56:19.965Z,11.98
2023-01-06T07:01:23.296Z,12.57
2023-01-06T07:06:28.986Z,12.40
2023-01-06T07:11:33.668Z,12.13
2023-01-06T07:16:36.937Z,11.97
2023-01-06T07:21:40.202Z,12.30
2023-01-06T07:26:44.800Z,11.73
2023-01-06T07:31:48.001Z,11.60
2023-01-06T07:36:51.266Z,13.48
2023-01-06T07:41:55.850Z,14.27
2023-01-06T07:46:59.060Z,12.57
2023-01-06T07:52:02.292Z,12.50
2023-01-06T07:57:07.864Z,11.95
2023-01-06T08:02:11.879Z,11.50
2023-01-06T08:07:15.968Z,11.43
2023-01-06T08:12:20.576Z,11.02
2023-01-06T08:17:23.845Z,9.07
2023-01-06T08:22:27.266Z,7.80
2023-01-06T08:27:31.842Z,9.40
2023-01-06T08:32:35.135Z,8.70
2023-01-06T08:37:38.355Z,10.02
2023-01-06T08:42:42.967Z,9.32
2023-01-06T08:47:46.173Z,9.73
2023-01-06T08:52:49.401Z,11.77
2023-01-06T08:57:55.054Z,11.02
2023-01-06T09:02:58.525Z,10.52
2023-01-06T09:08:01.804Z,14.13
2023-01-06T09:13:07.497Z,11.35
2023-01-06T09:18:11.361Z,10.73
2023-01-06T09:23:14.735Z,10.52
2023-01-06T09:28:19.311Z,9.48
2023-01-06T09:33:22.576Z,12.13
2023-01-06T09:38:26.348Z,9.00
2023-01-06T09:43:43.657Z,9.35
2023-01-06T09:48:52.729Z,10.07
2023-01-06T09:53:59.466Z,8.77
2023-01-06T09:59:10.229Z,10.50
2023-01-06T10:04:18.486Z,42.63
2023-01-06T10:09:31.418Z,9.00
2023-01-06T10:14:48.878Z,6.90
2023-01-06T10:20:02.955Z,7.22
2023-01-06T10:25:16.583Z,7.30
2023-01-06T10:30:30.480Z,7.72
2023-01-06T10:35:34.479Z,5.95
2023-01-06T10:40:37.816Z,4.90
2023-01-06T10:45:44.578Z,4.10
2023-01-06T10:50:48.810Z,5.20
2023-01-06T10:55:54.661Z,3.90
2023-01-06T11:01:01.389Z,5.18
2023-01-06T11:06:11.338Z,5.90
2023-01-06T11:11:33.925Z,4.28
2023-01-06T11:16:38.650Z,4.30
2023-01-06T11:21:43.640Z,3.17
2023-01-06T11:26:52.342Z,2.97
2023-01-06T11:31:57.892Z,3.13
2023-01-06T11:37:01.559Z,3.47
2023-01-06T11:42:11.320Z,3.47
2023-01-06T11:47:19.253Z,3.20
2023-01-06T11:52:25.498Z,3.60
2023-01-06T11:57:35.932Z,4.00
2023-01-06T12:02:50.953Z,3.20
2023-01-06T12:07:56.094Z,4.00
2023-01-06T12:12:59.462Z,5.53
2023-01-06T12:18:08.840Z,3.08
2023-01-06T12:23:17.763Z,4.47
2023-01-06T12:28:28.125Z,3.90
2023-01-06T12:33:37.095Z,3.22
2023-01-06T12:38:49.209Z,4.85
2023-01-06T12:43:58.830Z,3.13
2023-01-06T12:49:06.960Z,3.47
2023-01-06T12:54:17.411Z,3.83
2023-01-06T12:59:28.001Z,4.53
2023-01-06T13:04:57.227Z,5.28
2023-01-06T13:10:09.660Z,4.47
2023-01-06T13:15:20.859Z,5.97
2023-01-06T13:20:31.472Z,5.30
2023-01-06T13:25:57.035Z,4.63
2023-01-06T13:31:23.465Z,4.50
2023-01-06T13:36:54.657Z,3.90
2023-01-06T13:42:02.407Z,3.30
2023-01-06T13:47:09.446Z,3.83
2023-01-06T13:52:18.488Z,5.03
2023-01-06T13:57:31.515Z,3.78
2023-01-06T14:03:03.829Z,4.20
2023-01-06T14:08:18.005Z,5.00
2023-01-06T14:13:24.274Z,5.37
2023-01-06T14:18:39.798Z,4.65
2023-01-06T14:23:57.318Z,9.65
2023-01-06T14:29:39.156Z,7.75
2023-01-06T14:34:46.130Z,10.30
2023-01-06T14:39:54.629Z,8.07
2023-01-06T14:45:00.349Z,9.10
2023-01-06T14:50:07.173Z,8.88
2023-01-06T14:55:17.845Z,9.88
2023-01-06T15:00:25.328Z,10.50
2023-01-06T15:05:32.301Z,9.83
2023-01-06T15:10:39.473Z,10.00
2023-01-06T15:15:43.624Z,11.27
2023-01-06T15:20:47.690Z,12.15
2023-01-06T15:25:53.858Z,11.30
2023-01-06T15:30:57.875Z,11.20
2023-01-06T15:36:02.130Z,10.52
2023-01-06T15:41:28.434Z,12.20
2023-01-06T15:46:41.455Z,10.85
2023-01-06T15:51:54.698Z,10.70
2023-01-06T15:57:11.517Z,11.53
2023-01-06T16:02:30.495Z,16.50
2023-01-06T16:07:40.783Z,12.90
2023-01-06T16:12:45.524Z,12.60
2023-01-06T16:17:49.251Z,10.53
2023-01-06T16:22:55.273Z,11.23
2023-01-06T16:28:02.315Z,11.30
2023-01-06T16:33:06.229Z,11.00
2023-01-06T16:38:09.516Z,11.40
2023-01-06T16:43:14.217Z,11.43
2023-01-06T16:48:18.752Z,10.55
2023-01-06T16:53:23.771Z,10.63
2023-01-06T16:58:30.218Z,8.60
2023-01-06T17:03:38.630Z,9.88
2023-01-06T17:08:42.005Z,10.30
2023-01-06T17:13:52.734Z,8.73
2023-01-06T17:18:59.520Z,9.13
2023-01-06T17:24:11.627Z,9.20
2023-01-06T17:29:18.354Z,8.98
2023-01-06T17:34:24.871Z,8.80
2023-01-06T17:39:31.215Z,8.23
2023-01-06T17:44:40.593Z,9.70
2023-01-06T17:49:48.837Z,9.10
2023-01-06T17:55:15.177Z,7.57
2023-01-06T18:00:24.358Z,7.70
2023-01-06T18:06:16.337Z,7.20
2023-01-06T18:11:32.919Z,7.20
2023-01-06T18:16:39.600Z,7.90
2023-01-06T18:21:45.161Z,7.13
2023-01-06T18:26:50.326Z,7.15
2023-01-06T18:31:55.806Z,7.87
2023-01-06T18:37:00.754Z,7.72
2023-01-06T18:42:19.196Z,8.13
2023-01-06T18:47:25.736Z,9.68
2023-01-06T18:52:39.941Z,8.27
2023-01-06T18:57:46.000Z,9.02
2023-01-06T19:02:53.158Z,9.32
2023-01-06T19:07:58.178Z,8.68
2023-01-06T19:13:02.237Z,8.60
2023-01-06T19:18:13.612Z,7.85
2023-01-06T19:23:20.642Z,7.60
2023-01-06T19:28:27.079Z,7.47
2023-01-06T19:33:45.642Z,7.70
2023-01-06T19:38:49.312Z,8.50
2023-01-06T19:43:54.826Z,7.95
2023-01-06T19:49:01.063Z,6.90
2023-01-06T19:54:13.278Z,7.75
2023-01-06T19:59:18.764Z,7.40
2023-01-06T20:04:25.491Z,7.00
2023-01-06T20:09:28.798Z,6.40
2023-01-06T20:14:32.183Z,6.10
2023-01-06T20:19:37.090Z,6.45
2023-01-06T20:24:41.597Z,5.70
2023-01-06T20:29:45.089Z,6.20
2023-01-06T20:34:49.759Z,6.05
2023-01-06T20:39:53.660Z,6.18
2023-01-06T20:44:57.282Z,5.85
2023-01-06T20:50:01.953Z,6.50
2023-01-06T20:55:07.017Z,5.90
2023-01-06T21:00:12.141Z,5.90
2023-01-06T21:05:17.075Z,5.70
2023-01-06T21:10:20.605Z,5.40
2023-01-06T21:15:26.118Z,8.95
2023-01-06T21:20:30.968Z,5.70
2023-01-06T21:25:34.347Z,4.57
2023-01-06T21:30:38.439Z,4.50
2023-01-06T21:35:44.131Z,4.23
2023-01-06T21:40:47.446Z,4.30
2023-01-06T21:45:50.870Z,4.30
2023-01-06T21:50:55.650Z,4.25
2023-01-06T21:55:59.170Z,4.97
2023-01-06T22:01:02.531Z,4.22
2023-01-06T22:06:07.866Z,4.28
2023-01-06T22:11:11.728Z,5.28
2023-01-06T22:16:15.169Z,4.70
2023-01-06T22:21:20.056Z,4.90
2023-01-06T22:26:24.532Z,7.17
2023-01-06T22:31:29.382Z,4.85
2023-01-06T22:36:34.327Z,4.32
2023-01-06T22:41:37.837Z,4.68
2023-01-06T22:46:41.437Z,4.70
2023-01-06T22:51:46.192Z,4.60
2023-01-06T22:56:49.474Z,4.70
2023-01-06T23:01:53.489Z,5.40
2023-01-06T23:06:58.486Z,5.35
2023-01-06T23:12:01.811Z,5.40
2023-01-06T23:17:05.347Z,5.80
2023-01-06T23:22:10.061Z,6.57
2023-01-06T23:27:13.826Z,7.30
2023-01-06T23:32:17.133Z,7.20
2023-01-06T23:37:21.799Z,7.35
2023-01-06T23:42:25.079Z,7.20
2023-01-06T23:47:28.331Z,7.57
2023-01-06T23:52:33.179Z,7.17
2023-01-06T23:57:36.518Z,7.38
